Time;durP1;ratioP1;P1;durP2;ratioP2;P2;SDS_P1;SDS_P2;PMS_P1;PMS_P2;Temp;Humidity;BMP_temperature;BMP_pressure;BME280_temperature;BME280_humidity;BME280_pressure;Samples;Min_cycle;Max_cycle;Signal;HPM_P1;HPM_P2
2022/11/28 00:01:55;;;;;;;9.87;5.80;;;;;;;6.62;100.00;100878.78;5297203;28;20063;-70
2022/11/28 00:04:26;;;;;;;9.80;5.97;;;;;;;6.68;100.00;100877.69;5294896;28;20032;-70
2022/11/28 00:06:57;;;;;;;9.00;5.80;;;;;;;6.65;100.00;100876.91;5293827;28;20028;-69
2022/11/28 00:09:29;;;;;;;9.83;6.77;;;;;;;6.68;100.00;100888.97;5289215;28;20032;-70
2022/11/28 00:12:00;;;;;;;11.57;6.17;;;;;;;6.67;100.00;100876.00;5296516;28;20035;-69
2022/11/28 00:14:31;;;;;;;7.30;5.50;;;;;;;6.65;100.00;100878.66;5295912;28;20036;-70
2022/11/28 00:17:03;;;;;;;10.10;5.63;;;;;;;6.67;100.00;100871.63;5296263;28;20026;-70
2022/11/28 00:19:34;;;;;;;7.63;5.27;;;;;;;6.74;100.00;100869.59;5294890;28;20061;-69
2022/11/28 00:22:05;;;;;;;7.27;5.67;;;;;;;6.71;100.00;100865.41;5295679;28;20020;-70
2022/11/28 00:24:38;;;;;;;11.33;5.70;;;;;;;6.76;100.00;100866.03;5288965;28;20128;-69
2022/11/28 00:27:09;;;;;;;9.87;5.80;;;;;;;6.78;100.00;100864.22;5292674;28;20494;-70
2022/11/28 00:29:40;;;;;;;9.47;5.57;;;;;;;6.81;100.00;100870.22;5293005;28;20088;-70
2022/11/28 00:32:12;;;;;;;7.10;5.10;;;;;;;6.85;100.00;100863.94;5295740;28;20072;-70
2022/11/28 00:34:43;;;;;;;7.30;4.73;;;;;;;6.85;100.00;100859.59;5291058;28;20056;-69
2022/11/28 00:37:14;;;;;;;8.90;5.73;;;;;;;6.90;100.00;100846.34;5285856;28;20054;-71
2022/11/28 00:39:46;;;;;;;12.57;5.10;;;;;;;6.95;100.00;100857.41;5298085;28;20077;-69
2022/11/28 00:42:19;;;;;;;6.10;4.50;;;;;;;6.94;100.00;100853.13;5297466;28;20035;-70
2022/11/28 00:44:51;;;;;;;8.23;5.18;;;;;;;6.95;100.00;100847.00;5283906;28;20103;-70
2022/11/28 00:47:22;;;;;;;6.20;4.17;;;;;;;6.95;100.00;100853.97;5294117;28;20119;-70
2022/11/28 00:49:53;;;;;;;6.73;4.63;;;;;;;6.99;100.00;100856.38;5296159;28;20039;-69
2022/11/28 00:52:24;;;;;;;6.30;4.13;;;;;;;6.99;100.00;100852.91;5294341;28;20145;-70
2022/11/28 00:54:56;;;;;;;6.73;4.73;;;;;;;6.92;100.00;100844.53;5294734;28;20032;-69
2022/11/28 00:57:27;;;;;;;7.60;4.60;;;;;;;6.96;100.00;100834.84;5287009;28;20033;-70
2022/11/28 00:59:59;;;;;;;7.37;5.57;;;;;;;6.98;100.00;100849.47;5295085;28;20047;-70
2022/11/28 01:02:30;;;;;;;9.17;5.40;;;;;;;6.99;100.00;100840.75;5294267;28;20036;-70
2022/11/28 01:05:01;;;;;;;11.57;5.37;;;;;;;6.97;100.00;100842.56;5290973;28;20032;-70
2022/11/28 01:07:33;;;;;;;6.27;4.90;;;;;;;6.93;100.00;100833.19;5292715;28;20131;-69
2022/11/28 01:10:05;;;;;;;6.27;4.40;;;;;;;6.94;100.00;100845.31;5295276;28;20077;-69
2022/11/28 01:12:36;;;;;;;6.07;4.40;;;;;;;7.00;100.00;100850.25;5293835;28;20032;-70
2022/11/28 01:15:10;;;;;;;8.27;4.90;;;;;;;6.98;100.00;100839.03;5295687;28;20609;-70
2022/11/28 01:17:42;;;;;;;8.60;4.90;;;;;;;7.01;100.00;100840.69;5295569;28;20034;-69
2022/11/28 01:20:13;;;;;;;7.93;4.60;;;;;;;7.00;100.00;100836.38;5295010;28;20028;-69
2022/11/28 01:22:44;;;;;;;8.30;5.00;;;;;;;6.94;100.00;100829.69;5294438;28;20039;-70
2022/11/28 01:25:16;;;;;;;6.67;4.50;;;;;;;7.01;100.00;100838.94;5290292;28;20030;-70
2022/11/28 01:27:47;;;;;;;6.07;5.30;;;;;;;6.98;100.00;100833.84;5296036;28;20057;-70
2022/11/28 01:30:18;;;;;;;5.53;4.07;;;;;;;7.06;100.00;100845.69;5296768;28;20016;-69
2022/11/28 01:32:50;;;;;;;6.10;4.07;;;;;;;7.06;100.00;100845.69;5298431;28;20107;-69
2022/11/28 01:35:21;;;;;;;19.10;5.23;;;;;;;7.04;100.00;100844.91;5294896;28;20166;-72
2022/11/28 01:37:52;;;;;;;11.17;5.43;;;;;;;7.02;100.00;100842.38;5294795;28;20115;-69
2022/11/28 01:40:24;;;;;;;6.50;3.83;;;;;;;7.01;100.00;100841.53;5290598;28;20032;-69
2022/11/28 01:42:55;;;;;;;9.20;4.47;;;;;;;7.06;100.00;100850.88;5294820;28;20144;-71
2022/11/28 01:45:30;;;;;;;8.20;4.67;;;;;;;7.07;100.00;100847.38;5294825;28;20059;-69
2022/11/28 01:48:02;;;;;;;7.70;4.05;;;;;;;7.02;100.00;100845.81;5295550;28;20111;-70
2022/11/28 01:50:35;;;;;;;7.43;5.60;;;;;;;7.07;100.00;100842.19;5295099;28;20121;-70
2022/11/28 01:53:09;;;;;;;6.57;4.20;;;;;;;7.01;100.00;100832.88;5293966;28;20039;-69
2022/11/28 01:55:54;;;;;;;8.00;4.30;;;;;;;7.07;100.00;100834.38;5292892;28;20028;-70
2022/11/28 01:58:27;;;;;;;9.33;4.40;;;;;;;7.08;100.00;100836.91;5284656;28;20372;-69
2022/11/28 02:00:58;;;;;;;7.63;3.93;;;;;;;7.08;100.00;100836.03;5290130;28;20096;-68
2022/11/28 02:03:38;;;;;;;7.20;3.97;;;;;;;7.07;100.00;100840.41;5295103;28;20127;-70
2022/11/28 02:06:12;;;;;;;4.93;3.73;;;;;;;7.04;100.00;100827.50;5279858;28;21651;-70
2022/11/28 02:08:43;;;;;;;11.00;4.68;;;;;;;7.09;100.00;100835.13;5287124;28;20059;-70
2022/11/28 02:11:45;;;;;;;6.83;4.20;;;;;;;7.10;100.00;100831.63;5294311;28;20020;-70
2022/11/28 02:14:31;;;;;;;8.80;3.73;;;;;;;7.09;100.00;100824.69;5288991;28;20135;-70
2022/11/28 02:17:23;;;;;;;6.53;3.80;;;;;;;7.10;100.00;100821.19;5295024;28;20440;-70
2022/11/28 02:20:09;;;;;;;8.50;4.00;;;;;;;7.06;100.00;100814.41;5282541;28;20513;-70
2022/11/28 02:22:52;;;;;;;7.43;4.20;;;;;;;7.08;100.00;100817.81;5294535;28;20024;-70
2022/11/28 02:25:47;;;;;;;5.97;3.20;;;;;;;7.10;100.00;100818.59;5294977;28;20035;-70
2022/11/28 02:28:54;;;;;;;5.97;3.47;;;;;;;7.05;100.00;100823.97;5294478;28;20016;-71
2022/11/28 02:31:42;;;;;;;6.17;3.90;;;;;;;7.05;100.00;100817.94;5292054;28;20409;-71
2022/11/28 02:34:26;;;;;;;9.17;3.90;;;;;;;7.05;100.00;100816.16;5290007;28;20028;-70
2022/11/28 02:37:08;;;;;;;6.20;3.78;;;;;;;7.05;100.00;100812.75;5281579;28;20068;-71
2022/11/28 02:40:01;;;;;;;4.83;2.93;;;;;;;7.07;100.00;100821.34;5294457;28;20063;-69
2022/11/28 02:43:10;;;;;;;5.20;3.63;;;;;;;7.07;100.00;100818.75;5293321;28;20036;-71
2022/11/28 02:46:06;;;;;;;6.30;3.27;;;;;;;7.05;100.00;100817.94;5284207;28;20036;-71
2022/11/28 02:48:48;;;;;;;4.93;3.73;;;;;;;7.02;100.00;100824.13;5291388;28;20074;-70
2022/11/28 02:51:39;;;;;;;6.70;3.73;;;;;;;7.07;100.00;100822.16;5287737;28;20051;-69
2022/11/28 02:54:13;;;;;;;7.87;3.53;;;;;;;7.02;100.00;100816.31;5275534;28;20024;-69
2022/11/28 02:56:49;;;;;;;7.40;3.70;;;;;;;7.02;100.00;100814.56;5295269;28;20050;-69
2022/11/28 02:59:36;;;;;;;4.87;3.60;;;;;;;7.05;100.00;100817.94;5277821;28;20115;-71
2022/11/28 03:02:15;;;;;;;8.10;3.70;;;;;;;6.98;100.00;100812.19;5291834;28;20029;-70
2022/11/28 03:04:56;;;;;;;5.80;3.67;;;;;;;6.98;100.00;100802.59;5289159;28;20478;-70
2022/11/28 03:07:33;;;;;;;5.93;4.00;;;;;;;7.01;100.00;100804.22;5287945;28;20078;-70
2022/11/28 03:10:43;;;;;;;4.53;3.40;;;;;;;7.06;100.00;100804.00;5300000;28;20035;-69
2022/11/28 03:13:39;;;;;;;6.17;3.60;;;;;;;6.92;100.00;100800.28;5296922;28;20469;-70
2022/11/28 03:16:10;;;;;;;;;;;;;;;7.04;100.00;100800.63;5282810;28;20035;-68
2022/11/28 03:18:54;;;;;;;5.53;3.45;;;;;;;6.90;100.00;100797.75;5296507;28;19919;-70
2022/11/28 03:21:39;;;;;;;4.30;3.53;;;;;;;6.92;100.00;100800.28;5297534;28;20122;-70
2022/11/28 03:24:23;;;;;;;5.38;3.72;;;;;;;6.93;100.00;100796.75;5291424;28;20020;-71
2022/11/28 03:27:09;;;;;;;5.32;3.38;;;;;;;6.95;100.00;100797.53;5296202;28;20047;-70
2022/11/28 03:29:44;;;;;;;7.20;4.33;;;;;;;6.91;100.00;100798.59;5295388;28;20028;-70
2022/11/28 03:32:22;;;;;;;4.87;3.37;;;;;;;6.88;100.00;100790.91;5296113;28;20398;-70
2022/11/28 03:35:02;;;;;;;5.30;3.27;;;;;;;6.82;100.00;100786.84;5297311;28;20036;-70
2022/11/28 03:37:38;;;;;;;5.27;4.00;;;;;;;6.94;100.00;100793.25;5290342;28;20036;-69
2022/11/28 03:40:15;;;;;;;4.50;3.43;;;;;;;6.92;100.00;100797.69;5294835;28;20040;-69
2022/11/28 03:42:59;;;;;;;5.53;3.87;;;;;;;6.86;100.00;100798.78;5283543;28;20056;-71
2022/11/28 03:45:35;;;;;;;4.93;2.93;;;;;;;6.89;100.00;100796.03;5293514;28;20040;-71
2022/11/28 03:48:18;;;;;;;6.63;3.67;;;;;;;6.81;100.00;100794.72;5291148;28;20055;-70
2022/11/28 03:50:53;;;;;;;5.23;3.40;;;;;;;6.84;100.00;100798.00;5293603;28;20490;-70
2022/11/28 03:53:47;;;;;;;4.37;3.07;;;;;;;6.95;100.00;100791.47;5292462;28;20035;-70
2022/11/28 03:56:29;;;;;;;5.27;3.63;;;;;;;6.93;100.00;100796.75;5289770;28;20131;-71
2022/11/28 03:59:06;;;;;;;5.13;3.30;;;;;;;6.88;100.00;100802.16;5291520;28;20106;-68
2022/11/28 04:01:59;;;;;;;5.37;3.33;;;;;;;6.90;100.00;100799.50;5285280;28;20033;-71
2022/11/28 04:04:41;;;;;;;7.07;3.67;;;;;;;6.94;100.00;100801.06;5294862;28;20394;-70
2022/11/28 04:07:27;;;;;;;4.77;3.53;;;;;;;6.92;100.00;100789.88;5293980;28;20139;-71
2022/11/28 04:10:07;;;;;;;4.20;3.57;;;;;;;6.96;100.00;100801.84;5297017;28;20046;-70
2022/11/28 04:12:49;;;;;;;5.33;3.47;;;;;;;6.89;100.00;100795.22;5294167;28;20549;-70
2022/11/28 04:15:46;;;;;;;7.40;3.73;;;;;;;6.89;100.00;100798.66;5291709;28;20028;-70
2022/11/28 04:18:28;;;;;;;5.87;3.77;;;;;;;6.87;100.00;100790.09;5296520;28;20039;-70
2022/11/28 04:21:21;;;;;;;7.57;3.73;;;;;;;6.85;100.00;100791.03;5295250;28;20582;-70
2022/11/28 04:23:55;;;;;;;4.57;3.53;;;;;;;6.87;100.00;100791.84;5294441;28;20057;-70
2022/11/28 04:26:38;;;;;;;9.37;4.37;;;;;;;6.94;100.00;100801.06;5295689;28;20035;-70
2022/11/28 04:29:14;;;;;;;6.57;4.47;;;;;;;6.94;100.00;100806.25;5296520;28;20043;-70
2022/11/28 04:31:49;;;;;;;3.73;3.13;;;;;;;6.92;100.00;100796.81;5287658;28;20364;-70
2022/11/28 04:34:24;;;;;;;4.70;4.00;;;;;;;6.85;100.00;100785.84;5287222;28;20028;-70
2022/11/28 04:36:58;;;;;;;7.63;3.40;;;;;;;6.95;100.00;100801.88;5288738;28;20031;-70
2022/11/28 04:39:32;;;;;;;7.63;4.13;;;;;;;6.94;100.00;100795.00;5290086;28;20444;-71
2022/11/28 04:42:14;;;;;;;5.50;3.47;;;;;;;6.98;100.00;100799.16;5295305;28;20770;-70
2022/11/28 04:44:48;;;;;;;4.13;3.30;;;;;;;6.90;100.00;100800.34;5282614;28;20033;-70
2022/11/28 04:47:21;;;;;;;;;;;;;;;7.04;100.00;100801.47;5289336;28;20519;-71
2022/11/28 04:49:53;;;;;;;4.37;3.30;;;;;;;6.95;100.00;100794.94;5289325;28;19917;-71
2022/11/28 04:52:43;;;;;;;6.70;4.37;;;;;;;6.96;100.00;100801.84;5293761;28;20043;-69
2022/11/28 04:55:37;;;;;;;7.60;3.60;;;;;;;6.96;100.00;100799.22;5288857;28;20111;-70
2022/11/28 04:58:21;;;;;;;5.47;3.20;;;;;;;6.92;100.00;100792.47;5287363;28;20032;-71
2022/11/28 05:00:54;;;;;;;3.83;3.42;;;;;;;6.94;100.00;100795.00;5291768;28;20486;-70
2022/11/28 05:03:29;;;;;;;4.33;3.93;;;;;;;6.91;100.00;100801.19;5291067;28;20020;-70
2022/11/28 05:06:02;;;;;;;4.23;3.50;;;;;;;6.89;100.00;100795.22;5293290;28;20084;-71
2022/11/28 05:08:33;;;;;;;4.73;4.10;;;;;;;6.89;100.00;100797.81;5294084;28;20079;-70
2022/11/28 05:11:04;;;;;;;4.23;3.63;;;;;;;6.94;100.00;100801.06;5282025;28;20024;-70
2022/11/28 05:13:36;;;;;;;5.77;3.97;;;;;;;6.94;100.00;100803.66;5295804;28;20081;-69
2022/11/28 05:16:09;;;;;;;4.93;4.00;;;;;;;6.92;100.00;100807.22;5294641;28;20027;-70
2022/11/28 05:18:41;;;;;;;6.88;4.38;;;;;;;6.96;100.00;100808.81;5289337;28;20056;-69
2022/11/28 05:21:13;;;;;;;5.60;4.70;;;;;;;6.84;100.00;100789.38;5294446;28;20494;-71
2022/11/28 05:23:45;;;;;;;7.67;4.47;;;;;;;6.85;100.00;100801.47;5294454;28;20024;-70
2022/11/28 05:26:19;;;;;;;6.83;4.50;;;;;;;6.96;100.00;100809.66;5281862;28;20637;-71
2022/11/28 05:28:51;;;;;;;6.70;4.18;;;;;;;6.98;100.00;100801.78;5286638;28;20074;-71
2022/11/28 05:31:23;;;;;;;5.63;4.53;;;;;;;6.95;100.00;100807.09;5292987;28;20024;-71
2022/11/28 05:33:54;;;;;;;4.83;4.33;;;;;;;6.99;100.00;100803.44;5295415;28;20062;-69
2022/11/28 05:36:26;;;;;;;5.17;4.47;;;;;;;7.00;100.00;100815.53;5290304;28;20024;-71
2022/11/28 05:38:57;;;;;;;5.43;4.27;;;;;;;6.97;100.00;100811.34;5295633;28;20055;-70
2022/11/28 05:41:30;;;;;;;6.10;4.80;;;;;;;7.01;100.00;100812.88;5294679;28;20020;-70
2022/11/28 05:44:02;;;;;;;5.93;5.33;;;;;;;7.02;100.00;100816.31;5295123;28;20051;-70
2022/11/28 05:46:33;;;;;;;5.70;4.83;;;;;;;7.04;100.00;100819.69;5294303;28;20088;-69
2022/11/28 05:49:04;;;;;;;4.87;4.40;;;;;;;6.97;100.00;100818.28;5294676;28;20039;-69
2022/11/28 05:51:35;;;;;;;6.27;4.83;;;;;;;7.04;100.00;100818.84;5294436;28;20546;-70
2022/11/28 05:54:07;;;;;;;6.73;5.10;;;;;;;7.01;100.00;100812.03;5295047;28;20107;-69
2022/11/28 05:56:38;;;;;;;6.03;5.40;;;;;;;7.01;100.00;100812.88;5292900;28;20036;-70
2022/11/28 05:59:11;;;;;;;6.70;5.13;;;;;;;7.04;100.00;100818.84;5293230;28;20028;-70
2022/11/28 06:01:43;;;;;;;8.13;5.70;;;;;;;6.97;100.00;100811.34;5294041;28;20082;-70
2022/11/28 06:04:14;;;;;;;5.87;5.20;;;;;;;7.01;100.00;100812.88;5293267;28;20020;-71
2022/11/28 06:06:50;;;;;;;8.90;5.77;;;;;;;6.93;100.00;100809.75;5293394;28;20082;-70
2022/11/28 06:09:21;;;;;;;5.97;5.37;;;;;;;6.98;100.00;100807.81;5294218;28;20116;-71
2022/11/28 06:11:52;;;;;;;7.13;5.60;;;;;;;6.95;100.00;100812.28;5294451;28;20554;-70
2022/11/28 06:14:23;;;;;;;6.93;5.73;;;;;;;7.03;100.00;100815.41;5283079;28;20043;-71
2022/11/28 06:16:55;;;;;;;8.37;6.17;;;;;;;7.02;100.00;100819.78;5291396;28;20043;-71
2022/11/28 06:19:26;;;;;;;6.43;5.70;;;;;;;7.06;100.00;100814.41;5293204;28;20042;-69
2022/11/28 06:21:57;;;;;;;6.57;5.93;;;;;;;7.06;100.00;100819.63;5291674;28;20043;-69
2022/11/28 06:24:28;;;;;;;8.47;6.47;;;;;;;7.01;100.00;100818.09;5294353;28;20071;-69
2022/11/28 06:27:00;;;;;;;10.07;6.27;;;;;;;7.06;100.00;100822.22;5290855;28;20032;-70
2022/11/28 06:29:31;;;;;;;7.20;6.50;;;;;;;7.08;100.00;100825.63;5297783;28;20016;-71
2022/11/28 06:32:03;;;;;;;7.43;6.33;;;;;;;7.07;100.00;100831.75;5296827;28;20035;-70
2022/11/28 06:34:34;;;;;;;8.57;6.40;;;;;;;7.08;100.00;100838.66;5292244;28;20475;-70
2022/11/28 06:37:05;;;;;;;7.47;6.77;;;;;;;7.04;100.00;100827.50;5297571;28;20048;-71
2022/11/28 06:39:37;;;;;;;6.90;6.13;;;;;;;7.05;100.00;100828.38;5298259;28;20024;-73
2022/11/28 06:42:08;;;;;;;7.77;6.03;;;;;;;7.08;100.00;100831.69;5295345;28;20016;-70
2022/11/28 06:44:39;;;;;;;8.53;6.70;;;;;;;7.07;100.00;100839.56;5295315;28;20020;-70
2022/11/28 06:47:10;;;;;;;8.97;7.27;;;;;;;7.07;100.00;100829.97;5297084;28;20060;-71
2022/11/28 06:49:42;;;;;;;7.50;6.80;;;;;;;7.11;100.00;100820.28;5294646;28;20036;-72
2022/11/28 06:52:13;;;;;;;9.63;7.20;;;;;;;7.05;100.00;100817.94;5294901;28;20375;-72
2022/11/28 06:54:44;;;;;;;7.40;6.70;;;;;;;7.11;100.00;100822.88;5293023;28;20477;-71
2022/11/28 06:57:15;;;;;;;8.07;6.90;;;;;;;7.07;100.00;100826.56;5298165;28;20607;-72
2022/11/28 06:59:48;;;;;;;8.50;7.13;;;;;;;7.10;100.00;100832.44;5288780;28;20112;-70
2022/11/28 07:02:19;;;;;;;7.67;6.87;;;;;;;7.15;100.00;100834.84;5286941;28;20039;-71
2022/11/28 07:04:50;;;;;;;9.07;8.17;;;;;;;7.14;100.00;100836.59;5286432;28;20029;-71
2022/11/28 07:07:22;;;;;;;8.80;7.87;;;;;;;7.13;100.00;100834.06;5284095;28;20049;-69
2022/11/28 07:09:53;;;;;;;10.67;8.03;;;;;;;7.11;100.00;100831.53;5296234;28;20063;-71
2022/11/28 07:12:24;;;;;;;8.67;7.80;;;;;;;7.16;100.00;100840.91;5292644;28;20032;-71
2022/11/28 07:14:55;;;;;;;9.20;8.30;;;;;;;7.13;100.00;100841.88;5285283;28;20020;-71
2022/11/28 07:17:27;;;;;;;10.50;9.37;;;;;;;7.16;100.00;100838.31;5285891;28;20066;-71
2022/11/28 07:19:58;;;;;;;10.47;9.37;;;;;;;7.16;100.00;100841.75;5297229;28;20079;-71
2022/11/28 07:22:29;;;;;;;10.13;9.03;;;;;;;7.12;100.00;100842.81;5284467;28;20036;-72
2022/11/28 07:25:01;;;;;;;10.23;9.23;;;;;;;7.18;100.00;100837.31;5298208;28;20072;-71
2022/11/28 07:27:32;;;;;;;8.77;7.97;;;;;;;7.19;100.00;100844.19;5296072;28;20706;-70
2022/11/28 07:30:04;;;;;;;9.40;8.40;;;;;;;7.11;100.00;100843.72;5291200;28;20406;-69
2022/11/28 07:32:39;;;;;;;9.20;7.57;;;;;;;7.17;100.00;100840.00;5300154;28;20114;-70
2022/11/28 07:35:11;;;;;;;10.30;8.23;;;;;;;7.22;100.00;100857.09;5293200;28;20815;-69
2022/11/28 07:37:42;;;;;;;8.30;7.50;;;;;;;7.20;100.00;100856.31;5295315;28;20123;-69
2022/11/28 07:40:13;;;;;;;8.90;8.00;;;;;;;7.19;100.00;100859.81;5293210;28;20031;-70
2022/11/28 07:42:45;;;;;;;9.47;8.50;;;;;;;7.17;100.00;100864.28;5295288;28;20032;-70
2022/11/28 07:45:16;;;;;;;9.37;8.37;;;;;;;7.20;100.00;100858.94;5294736;28;20036;-69
2022/11/28 07:47:48;;;;;;;8.83;7.93;;;;;;;7.20;100.00;100864.13;5286550;28;20075;-74
2022/11/28 07:50:19;;;;;;;9.57;8.17;;;;;;;7.20;100.00;100866.75;5294133;28;20025;-75
2022/11/28 07:52:50;;;;;;;9.00;8.10;;;;;;;7.22;100.00;100870.13;5293158;28;20028;-70
2022/11/28 07:55:22;;;;;;;8.97;7.90;;;;;;;7.09;100.00;100850.75;5295338;28;20035;-70
2022/11/28 07:57:53;;;;;;;8.83;7.83;;;;;;;7.28;100.00;100871.59;5296965;28;20770;-70
2022/11/28 08:00:24;;;;;;;8.90;8.10;;;;;;;7.14;100.00;100880.88;5296119;28;20463;-70
2022/11/28 08:02:56;;;;;;;9.33;8.33;;;;;;;7.22;100.00;100888.38;5296174;28;20753;-71
2022/11/28 08:05:27;;;;;;;8.93;8.03;;;;;;;7.21;100.00;100885.84;5295563;28;20020;-70
2022/11/28 08:07:58;;;;;;;10.30;8.70;;;;;;;7.15;100.00;100881.75;5291860;28;20047;-69
2022/11/28 08:10:29;;;;;;;10.37;8.63;;;;;;;7.19;100.00;100870.25;5294722;28;20470;-69
2022/11/28 08:13:01;;;;;;;9.43;8.43;;;;;;;7.25;100.00;100876.94;5295118;28;20355;-70
2022/11/28 08:15:32;;;;;;;9.37;8.43;;;;;;;7.26;100.00;100873.44;5293189;28;20410;-69
2022/11/28 08:18:04;;;;;;;9.53;8.33;;;;;;;7.31;100.00;100875.84;5293996;28;20536;-71
2022/11/28 08:20:35;;;;;;;11.43;9.03;;;;;;;7.27;100.00;100885.53;5293512;28;20028;-69
2022/11/28 08:23:06;;;;;;;9.30;8.23;;;;;;;7.34;100.00;100886.97;5290181;28;20016;-70
2022/11/28 08:25:38;;;;;;;9.97;8.00;;;;;;;7.31;100.00;100886.25;5285165;28;20032;-70
2022/11/28 08:28:09;;;;;;;10.63;9.20;;;;;;;7.36;100.00;100890.34;5295135;28;20066;-70
2022/11/28 08:30:40;;;;;;;10.00;8.53;;;;;;;7.31;100.00;100881.91;5295938;28;20020;-72
2022/11/28 08:33:12;;;;;;;11.00;9.20;;;;;;;7.39;100.00;100889.34;5294966;28;20042;-71
2022/11/28 08:35:43;;;;;;;9.77;8.40;;;;;;;7.37;100.00;100881.59;5289553;28;20039;-68
2022/11/28 08:38:15;;;;;;;9.20;8.30;;;;;;;7.43;100.00;100893.50;5293887;28;20656;-70
2022/11/28 08:40:46;;;;;;;12.10;9.97;;;;;;;7.43;100.00;100897.88;5294808;28;20362;-69
2022/11/28 08:43:17;;;;;;;10.30;9.00;;;;;;;7.41;100.00;100900.56;5294926;28;20036;-69
2022/11/28 08:45:48;;;;;;;12.23;10.10;;;;;;;7.41;100.00;100894.47;5292612;28;20039;-69
2022/11/28 08:48:20;;;;;;;11.57;8.57;;;;;;;7.46;100.00;100901.19;5292639;28;20027;-69
2022/11/28 08:50:51;;;;;;;11.37;9.63;;;;;;;7.45;100.00;100902.09;5294488;28;20036;-70
2022/11/28 08:53:23;;;;;;;9.83;8.83;;;;;;;7.49;100.00;100902.78;5293607;28;20035;-69
2022/11/28 08:55:54;;;;;;;12.73;10.10;;;;;;;7.44;100.00;100895.19;5294694;28;20117;-68
2022/11/28 08:58:26;;;;;;;12.90;9.97;;;;;;;7.45;100.00;100896.06;5296366;28;20028;-68
2022/11/28 09:00:57;;;;;;;11.50;10.23;;;;;;;7.46;100.00;100903.78;5294758;28;20031;-68
2022/11/28 09:03:28;;;;;;;12.23;10.23;;;;;;;7.49;100.00;100894.97;5291833;28;20641;-68
2022/11/28 09:06:03;;;;;;;12.17;9.87;;;;;;;7.43;100.00;100895.25;5293121;28;20062;-69
2022/11/28 09:08:34;;;;;;;11.13;9.60;;;;;;;7.53;100.00;100895.69;5291684;28;20455;-68
2022/11/28 09:11:11;;;;;;;12.53;9.80;;;;;;;7.57;100.00;100899.84;5293474;28;20024;-68
2022/11/28 09:13:44;;;;;;;13.10;10.77;;;;;;;7.57;100.00;100899.84;5294251;28;20103;-69
2022/11/28 09:16:15;;;;;;;13.73;10.07;;;;;;;7.60;100.00;100903.16;5294611;28;20020;-68
2022/11/28 09:18:46;;;;;;;11.27;9.63;;;;;;;7.60;100.00;100912.72;5293407;28;20054;-68
2022/11/28 09:21:18;;;;;;;13.67;11.23;;;;;;;7.62;100.00;100910.91;5293340;28;20042;-69
2022/11/28 09:23:49;;;;;;;14.07;10.17;;;;;;;7.53;100.00;100901.75;5294792;28;20019;-70
2022/11/28 09:26:23;;;;;;;14.40;9.70;;;;;;;7.63;100.00;100918.66;5293989;28;20024;-69
2022/11/28 09:28:54;;;;;;;12.32;10.25;;;;;;;7.61;100.00;100915.25;5295310;28;20603;-69
2022/11/28 09:31:26;;;;;;;11.27;9.60;;;;;;;7.63;100.00;100925.63;5293870;28;20035;-70
2022/11/28 09:33:57;;;;;;;11.10;9.07;;;;;;;7.66;100.00;100916.81;5295351;28;20477;-70
2022/11/28 09:36:29;;;;;;;14.57;9.53;;;;;;;7.67;100.00;100914.16;5292301;28;20040;-70
2022/11/28 09:39:00;;;;;;;13.47;10.07;;;;;;;7.69;100.00;100917.53;5294546;28;20106;-69
2022/11/28 09:41:51;;;;;;;12.13;9.33;;;;;;;7.72;100.00;100917.38;5292953;28;20073;-69
2022/11/28 09:44:46;;;;;;;11.50;8.97;;;;;;;7.74;100.00;100919.91;5294221;28;20034;-69
2022/11/28 09:47:24;;;;;;;11.07;9.00;;;;;;;7.69;100.00;100922.75;5293788;28;20352;-69
2022/11/28 09:50:14;;;;;;;12.07;9.83;;;;;;;7.77;100.00;100918.94;5294700;28;20024;-70
2022/11/28 09:53:07;;;;;;;10.87;9.47;;;;;;;7.70;100.00;100914.00;5293935;28;20028;-70
2022/11/28 09:55:43;;;;;;;12.87;9.67;;;;;;;7.71;100.00;100928.75;5293178;28;20027;-70
2022/11/28 09:58:23;;;;;;;11.60;9.87;;;;;;;7.77;100.00;100926.75;5294247;28;20027;-70
2022/11/28 10:01:03;;;;;;;11.17;9.97;;;;;;;7.81;100.00;100931.75;5294411;28;20139;-69
2022/11/28 10:03:49;;;;;;;13.17;10.63;;;;;;;7.83;100.00;100922.09;5296245;28;20027;-69
2022/11/28 10:07:02;;;;;;;13.03;10.73;;;;;;;7.90;100.00;100927.88;5296192;28;20070;-70
2022/11/28 10:09:50;;;;;;;13.23;11.47;;;;;;;7.85;100.00;100916.81;5279493;28;20116;-69
2022/11/28 10:12:59;;;;;;;12.70;11.00;;;;;;;7.91;100.00;100921.72;5298651;28;20043;-68
2022/11/28 10:15:47;;;;;;;13.03;10.93;;;;;;;7.87;100.00;100917.59;5285381;28;20023;-69
2022/11/28 10:18:26;;;;;;;12.97;11.47;;;;;;;7.91;100.00;100919.13;5297035;28;20093;-69
2022/11/28 10:21:03;;;;;;;15.37;12.23;;;;;;;7.93;100.00;100916.44;5283628;28;20067;-69
2022/11/28 10:23:41;;;;;;;13.60;11.90;;;;;;;7.96;100.00;100918.88;5297485;28;20032;-68
2022/11/28 10:26:22;;;;;;;13.57;12.00;;;;;;;7.97;100.00;100924.06;5297572;28;20101;-69
2022/11/28 10:28:56;;;;;;;15.60;13.03;;;;;;;7.99;100.00;100921.38;5296062;28;20921;-70
2022/11/28 10:31:49;;;;;;;15.17;13.10;;;;;;;8.00;100.00;100917.84;5284514;28;20038;-69
2022/11/28 10:34:29;;;;;;;14.63;12.13;;;;;;;8.02;100.00;100917.75;5296502;28;20660;-70
2022/11/28 10:37:05;;;;;;;14.17;12.50;;;;;;;8.05;100.00;100917.59;5296120;28;20446;-69
2022/11/28 10:39:43;;;;;;;13.67;12.23;;;;;;;8.12;100.00;100921.59;5296448;28;20036;-69
2022/11/28 10:42:30;;;;;;;15.97;13.13;;;;;;;8.11;100.00;100912.09;5296095;28;20043;-68
2022/11/28 10:45:11;;;;;;;17.37;14.47;;;;;;;8.17;100.00;100924.03;5298481;28;20024;-70
2022/11/28 10:48:13;;;;;;;16.10;14.40;;;;;;;8.18;100.00;100929.16;5298072;28;20020;-69
2022/11/28 10:51:24;;;;;;;16.30;14.27;;;;;;;8.19;100.00;100933.44;5287428;28;20032;-70
2022/11/28 10:54:17;;;;;;;15.30;13.70;;;;;;;8.17;100.00;100937.06;5275697;28;20036;-69
2022/11/28 10:57:04;;;;;;;15.37;13.17;;;;;;;8.17;100.00;100935.28;5294237;28;20036;-69
2022/11/28 10:59:59;;;;;;;17.40;14.73;;;;;;;8.19;100.00;100936.06;5296299;28;20043;-70
2022/11/28 11:02:36;;;;;;;17.17;15.33;;;;;;;8.19;100.00;100935.19;5284122;28;20081;-68
2022/11/28 11:05:14;;;;;;;18.87;15.97;;;;;;;8.17;100.00;100943.09;5296950;28;20701;-70
2022/11/28 11:07:50;;;;;;;25.80;17.47;;;;;;;8.20;100.00;100942.13;5296421;28;20076;-68
2022/11/28 11:10:53;;;;;;;24.90;17.33;;;;;;;8.22;100.00;100943.72;5297050;28;20421;-69
2022/11/28 11:13:28;;;;;;;22.33;17.23;;;;;;;8.21;100.00;100930.75;5294657;28;20036;-69
2022/11/28 11:16:06;;;;;;;;;;;;;;;8.34;100.00;100928.41;5297953;28;20026;-69
2022/11/28 11:18:51;;;;;;;20.20;17.37;;;;;;;8.28;100.00;100932.16;5296382;28;19930;-69
2022/11/28 11:21:27;;;;;;;24.23;18.50;;;;;;;8.21;100.00;100920.31;5295672;28;20027;-70
2022/11/28 11:24:17;;;;;;;21.63;18.43;;;;;;;8.29;100.00;100926.00;5297575;28;20036;-68
2022/11/28 11:26:48;;;;;;;27.83;19.40;;;;;;;8.26;100.00;100925.31;5288321;28;20486;-69
2022/11/28 11:29:35;;;;;;;24.83;19.17;;;;;;;8.30;100.00;100938.16;5296706;28;20040;-70
2022/11/28 11:32:23;;;;;;;25.23;18.90;;;;;;;8.29;100.00;100931.22;5294491;28;20039;-69
2022/11/28 11:34:57;;;;;;;27.20;19.43;;;;;;;8.27;100.00;100929.63;5295331;28;20085;-68
2022/11/28 11:37:36;;;;;;;28.38;21.33;;;;;;;8.29;100.00;100925.19;5295887;28;20081;-69
2022/11/28 11:40:19;;;;;;;25.97;21.23;;;;;;;8.31;100.00;100925.94;5296276;28;20054;-71
2022/11/28 11:42:56;;;;;;;28.50;22.80;;;;;;;8.31;100.00;100923.31;5290752;28;20074;-70
2022/11/28 11:45:33;;;;;;;28.77;23.17;;;;;;;8.27;100.00;100916.56;5295749;28;20055;-69
2022/11/28 11:48:04;;;;;;;34.83;23.40;;;;;;;8.35;100.00;100919.66;5296073;28;20467;-69
2022/11/28 11:50:37;;;;;;;30.97;22.37;;;;;;;8.34;100.00;100917.97;5295377;28;20028;-69
2022/11/28 11:53:09;;;;;;;32.90;24.20;;;;;;;8.36;100.00;100921.31;5296239;28;20020;-69
2022/11/28 11:55:51;;;;;;;36.57;24.43;;;;;;;8.39;100.00;100926.41;5296861;28;20466;-69
2022/11/28 11:58:27;;;;;;;34.60;24.63;;;;;;;8.40;100.00;100928.09;5291756;28;20016;-69
2022/11/28 12:00:59;;;;;;;32.73;24.20;;;;;;;8.42;100.00;100936.69;5295296;28;20032;-68
2022/11/28 12:03:52;;;;;;;40.40;26.07;;;;;;;8.47;100.00;100932.09;5295457;28;20050;-68
2022/11/28 12:06:28;;;;;;;38.77;24.57;;;;;;;8.41;100.00;100927.16;5294810;28;20046;-69